CPA742 VVNB-VHHH
Flight info
| Callsign | CPA742 |
|---|---|
| Flight time | 1h 15m |
| Altitude | 37100 |
| Route | K0906S1130 NAKHA R474 GYA A599 POU R473 SIERA |
| Aircraft | B77W/H-SDE3GHIJ2J3J4J7M3P2RWXYZ/LB1D1 |
Departure
| Time | 2026-05-04 06:29 |
|---|---|
| Airport | Noi Bai International Airport (VVNB) |
Arrival
| Time | 2026-05-04 07:44 |
|---|---|
| Airport | Hong Kong International Airport (VHHH) |
| Time | Latitude | Longitude | Altitude | Speed | Heading |
|---|---|---|---|---|---|
| 2026-05-04 05:41 | 21.22010 | 105.78931 | 54 ft | 0 kts | 197° |
| 2026-05-04 06:21 | 21.22071 | 105.78952 | 48 ft | 4 kts | 206° |
| 2026-05-04 06:21 | 21.22092 | 105.78968 | 49 ft | 4 kts | 237° |
| 2026-05-04 06:22 | 21.22100 | 105.78993 | 47 ft | 4 kts | 272° |
| 2026-05-04 06:22 | 21.22095 | 105.79021 | 46 ft | 4 kts | 291° |
| 2026-05-04 06:25 | 21.22196 | 105.78659 | 47 ft | 16 kts | 288° |
| 2026-05-04 06:25 | 21.22234 | 105.78587 | 48 ft | 10 kts | 336° |
| 2026-05-04 06:26 | 21.22303 | 105.78589 | 51 ft | 10 kts | 12° |
| 2026-05-04 06:26 | 21.22368 | 105.78614 | 49 ft | 10 kts | 20° |
| 2026-05-04 06:26 | 21.22434 | 105.78640 | 50 ft | 10 kts | 20° |
| 2026-05-04 06:26 | 21.22453 | 105.78690 | 50 ft | 9 kts | 115° |
| 2026-05-04 06:27 | 21.22443 | 105.78721 | 54 ft | 0 kts | 109° |
| 2026-05-04 06:28 | 21.22439 | 105.78735 | 49 ft | 15 kts | 109° |
| 2026-05-04 06:28 | 21.22323 | 105.79134 | 50 ft | 98 kts | 107° |
| 2026-05-04 06:28 | 21.22046 | 105.80090 | 52 ft | 168 kts | 107° |
| 2026-05-04 06:29 | 21.21653 | 105.81383 | 474 ft | 184 kts | 106° |
| 2026-05-04 06:29 | 21.21282 | 105.82701 | 1207 ft | 188 kts | 104° |
| 2026-05-04 06:29 | 21.20898 | 105.84123 | 1590 ft | 212 kts | 104° |
| 2026-05-04 06:29 | 21.20459 | 105.85750 | 1844 ft | 244 kts | 105° |
| 2026-05-04 06:30 | 21.19959 | 105.87561 | 2480 ft | 259 kts | 105° |
| 2026-05-04 06:30 | 21.19444 | 105.89413 | 3349 ft | 264 kts | 104° |
| 2026-05-04 06:30 | 21.18919 | 105.91305 | 4270 ft | 267 kts | 104° |
| 2026-05-04 06:30 | 21.18384 | 105.93239 | 5115 ft | 274 kts | 104° |
| 2026-05-04 06:31 | 21.17838 | 105.95211 | 5950 ft | 278 kts | 104° |
| 2026-05-04 06:31 | 21.17645 | 105.97275 | 6576 ft | 284 kts | 81° |
| 2026-05-04 06:31 | 21.18297 | 105.99287 | 7248 ft | 289 kts | 60° |
| 2026-05-04 06:31 | 21.19445 | 106.01044 | 8002 ft | 289 kts | 41° |
| 2026-05-04 06:32 | 21.21076 | 106.02327 | 8732 ft | 294 kts | 29° |
| 2026-05-04 06:33 | 21.35582 | 106.10987 | 12349 ft | 399 kts | 27° |
| 2026-05-04 06:34 | 21.38003 | 106.12494 | 13246 ft | 405 kts | 27° |
| 2026-05-04 06:34 | 21.40448 | 106.14023 | 14107 ft | 410 kts | 27° |
| 2026-05-04 06:34 | 21.42927 | 106.15573 | 14876 ft | 415 kts | 27° |
| 2026-05-04 06:34 | 21.45438 | 106.17145 | 15621 ft | 421 kts | 27° |
| 2026-05-04 06:35 | 21.47984 | 106.18739 | 16348 ft | 427 kts | 27° |
| 2026-05-04 06:36 | 21.66690 | 106.30464 | 21028 ft | 461 kts | 27° |
| 2026-05-04 06:37 | 21.69473 | 106.32212 | 21647 ft | 466 kts | 27° |
| 2026-05-04 06:37 | 21.72285 | 106.33980 | 22240 ft | 470 kts | 27° |
| 2026-05-04 06:37 | 21.75124 | 106.35757 | 22819 ft | 474 kts | 26° |
| 2026-05-04 06:37 | 21.77985 | 106.37546 | 23441 ft | 477 kts | 26° |
| 2026-05-04 06:38 | 21.80867 | 106.39351 | 23948 ft | 481 kts | 26° |
| 2026-05-04 06:38 | 21.83774 | 106.41175 | 24366 ft | 486 kts | 26° |
| 2026-05-04 06:40 | 22.03295 | 106.54745 | 26994 ft | 523 kts | 37° |
| 2026-05-04 06:40 | 22.06044 | 106.57326 | 27406 ft | 526 kts | 37° |
| 2026-05-04 06:40 | 22.08836 | 106.59892 | 27824 ft | 529 kts | 36° |
| 2026-05-04 06:40 | 22.11678 | 106.62421 | 28210 ft | 532 kts | 35° |
| 2026-05-04 06:41 | 22.14569 | 106.64945 | 28570 ft | 536 kts | 35° |
| 2026-05-04 06:41 | 22.17466 | 106.67491 | 28910 ft | 540 kts | 37° |
| 2026-05-04 06:41 | 22.20246 | 106.70259 | 29227 ft | 546 kts | 41° |
| 2026-05-04 06:41 | 22.22947 | 106.73165 | 29570 ft | 550 kts | 42° |
| 2026-05-04 06:42 | 22.25645 | 106.76100 | 29951 ft | 551 kts | 41° |
| 2026-05-04 06:42 | 22.28361 | 106.79018 | 30367 ft | 551 kts | 41° |
| 2026-05-04 06:42 | 22.31080 | 106.81919 | 30841 ft | 548 kts | 43° |
| 2026-05-04 06:44 | 22.39627 | 107.08753 | 33948 ft | 548 kts | 79° |
| 2026-05-04 06:44 | 22.40327 | 107.12790 | 34374 ft | 546 kts | 79° |
| 2026-05-04 06:44 | 22.41047 | 107.16812 | 34768 ft | 544 kts | 78° |
| 2026-05-04 06:45 | 22.41768 | 107.20819 | 35141 ft | 543 kts | 78° |
| 2026-05-04 06:45 | 22.42484 | 107.24826 | 35506 ft | 542 kts | 78° |
| 2026-05-04 06:45 | 22.43197 | 107.28822 | 35879 ft | 541 kts | 78° |
| 2026-05-04 06:45 | 22.43916 | 107.32804 | 36259 ft | 539 kts | 78° |
| 2026-05-04 06:46 | 22.44638 | 107.36777 | 36593 ft | 539 kts | 78° |
| 2026-05-04 06:46 | 22.45362 | 107.40760 | 36834 ft | 540 kts | 78° |
| 2026-05-04 06:46 | 22.46085 | 107.44746 | 37086 ft | 542 kts | 78° |
| 2026-05-04 06:46 | 22.46810 | 107.48755 | 37154 ft | 545 kts | 78° |
| 2026-05-04 06:48 | 22.52496 | 107.80495 | 37171 ft | 536 kts | 78° |
| 2026-05-04 06:50 | 22.58138 | 108.12364 | 37178 ft | 542 kts | 78° |
| 2026-05-04 06:51 | 22.59308 | 108.20424 | 37179 ft | 542 kts | 82° |
| 2026-05-04 06:51 | 22.60205 | 108.28531 | 37177 ft | 542 kts | 83° |
| 2026-05-04 06:52 | 22.61085 | 108.36636 | 37170 ft | 542 kts | 82° |
| 2026-05-04 06:52 | 22.61991 | 108.44724 | 37167 ft | 541 kts | 82° |
| 2026-05-04 06:53 | 22.62903 | 108.52758 | 37169 ft | 541 kts | 82° |
| 2026-05-04 06:53 | 22.63817 | 108.60846 | 37186 ft | 541 kts | 82° |
| 2026-05-04 06:54 | 22.64724 | 108.68932 | 37165 ft | 541 kts | 82° |
| 2026-05-04 06:54 | 22.65626 | 108.77023 | 37158 ft | 541 kts | 82° |
| 2026-05-04 06:55 | 22.66523 | 108.85108 | 37149 ft | 541 kts | 83° |
| 2026-05-04 06:55 | 22.67418 | 108.93202 | 37153 ft | 542 kts | 83° |
| 2026-05-04 06:57 | 22.70987 | 109.25644 | 37155 ft | 543 kts | 83° |
| 2026-05-04 06:58 | 22.71906 | 109.33769 | 37157 ft | 544 kts | 82° |
| 2026-05-04 06:58 | 22.72865 | 109.41834 | 37150 ft | 544 kts | 82° |
| 2026-05-04 06:59 | 22.73808 | 109.49961 | 37149 ft | 544 kts | 82° |
| 2026-05-04 06:59 | 22.74733 | 109.58105 | 37152 ft | 545 kts | 82° |
| 2026-05-04 07:01 | 22.78403 | 109.90642 | 37168 ft | 545 kts | 83° |
| 2026-05-04 07:02 | 22.79312 | 109.98792 | 37149 ft | 545 kts | 83° |
| 2026-05-04 07:02 | 22.80218 | 110.06942 | 37150 ft | 545 kts | 83° |
| 2026-05-04 07:03 | 22.81121 | 110.15117 | 37149 ft | 546 kts | 83° |
| 2026-05-04 07:03 | 22.82020 | 110.23285 | 37143 ft | 546 kts | 83° |
| 2026-05-04 07:04 | 22.82915 | 110.31456 | 37153 ft | 546 kts | 83° |
| 2026-05-04 07:04 | 22.83806 | 110.39636 | 37144 ft | 546 kts | 83° |
| 2026-05-04 07:05 | 22.84692 | 110.47809 | 37146 ft | 546 kts | 83° |
| 2026-05-04 07:05 | 22.85575 | 110.55988 | 37139 ft | 546 kts | 83° |
| 2026-05-04 07:06 | 22.87014 | 110.68263 | 37143 ft | 547 kts | 82° |
| 2026-05-04 07:07 | 22.87984 | 110.76448 | 37139 ft | 548 kts | 82° |
| 2026-05-04 07:09 | 22.91774 | 111.09214 | 37152 ft | 550 kts | 82° |
| 2026-05-04 07:09 | 22.92716 | 111.17442 | 37143 ft | 550 kts | 83° |
| 2026-05-04 07:10 | 22.93653 | 111.25682 | 37139 ft | 550 kts | 83° |
| 2026-05-04 07:12 | 22.97363 | 111.58659 | 37131 ft | 550 kts | 83° |
| 2026-05-04 07:12 | 22.98271 | 111.66897 | 37140 ft | 550 kts | 83° |
| 2026-05-04 07:13 | 22.99168 | 111.75143 | 37144 ft | 550 kts | 83° |
| 2026-05-04 07:13 | 23.00062 | 111.83391 | 37135 ft | 551 kts | 83° |
| 2026-05-04 07:14 | 23.02285 | 112.04030 | 37138 ft | 551 kts | 83° |
| 2026-05-04 07:15 | 23.03166 | 112.12290 | 37144 ft | 551 kts | 83° |
| 2026-05-04 07:15 | 23.04043 | 112.20547 | 37149 ft | 551 kts | 83° |
| 2026-05-04 07:16 | 23.04917 | 112.28816 | 37133 ft | 551 kts | 83° |
| 2026-05-04 07:16 | 23.05787 | 112.37087 | 37145 ft | 552 kts | 83° |
| 2026-05-04 07:17 | 23.06650 | 112.45376 | 37149 ft | 552 kts | 84° |
| 2026-05-04 07:17 | 23.06805 | 112.53707 | 37139 ft | 552 kts | 95° |
| 2026-05-04 07:18 | 23.05469 | 112.61832 | 37138 ft | 543 kts | 116° |
| 2026-05-04 07:18 | 23.03748 | 112.65448 | 37162 ft | 536 kts | 128° |
| 2026-05-04 07:18 | 23.01518 | 112.68658 | 37153 ft | 529 kts | 139° |
| 2026-05-04 07:19 | 22.96150 | 112.73974 | 37159 ft | 523 kts | 145° |
| 2026-05-04 07:19 | 22.90694 | 112.79244 | 37129 ft | 526 kts | 144° |
| 2026-05-04 07:20 | 22.85267 | 112.84589 | 37144 ft | 528 kts | 144° |
| 2026-05-04 07:20 | 22.79852 | 112.89961 | 37152 ft | 527 kts | 144° |
| 2026-05-04 07:22 | 22.61068 | 113.08531 | 34726 ft | 517 kts | 144° |
| 2026-05-04 07:22 | 22.58401 | 113.11127 | 34385 ft | 514 kts | 146° |
| 2026-05-04 07:23 | 22.55584 | 113.13473 | 34024 ft | 508 kts | 152° |
| 2026-05-04 07:23 | 22.52699 | 113.15599 | 33515 ft | 509 kts | 153° |
| 2026-05-04 07:23 | 22.49745 | 113.17728 | 32992 ft | 511 kts | 153° |
| 2026-05-04 07:23 | 22.46784 | 113.19859 | 32483 ft | 512 kts | 153° |
| 2026-05-04 07:24 | 22.43822 | 113.22006 | 31977 ft | 513 kts | 153° |
| 2026-05-04 07:24 | 22.40870 | 113.24164 | 31486 ft | 512 kts | 152° |
| 2026-05-04 07:24 | 22.37925 | 113.26330 | 30998 ft | 509 kts | 152° |
| 2026-05-04 07:24 | 22.35021 | 113.28476 | 30505 ft | 503 kts | 152° |
| 2026-05-04 07:25 | 22.32152 | 113.30596 | 30016 ft | 497 kts | 152° |
| 2026-05-04 07:26 | 22.12927 | 113.44729 | 26298 ft | 461 kts | 151° |
| 2026-05-04 07:27 | 22.10280 | 113.46669 | 25932 ft | 464 kts | 151° |
| 2026-05-04 07:27 | 22.07683 | 113.48575 | 25533 ft | 447 kts | 151° |
| 2026-05-04 07:27 | 22.05968 | 113.49836 | 25056 ft | 436 kts | 151° |
| 2026-05-04 07:27 | 22.02710 | 113.52224 | 24094 ft | 425 kts | 151° |
| 2026-05-04 07:28 | 22.00274 | 113.54004 | 23303 ft | 421 kts | 151° |
| 2026-05-04 07:28 | 21.98656 | 113.55176 | 22724 ft | 422 kts | 152° |
| 2026-05-04 07:28 | 21.96113 | 113.56677 | 21823 ft | 412 kts | 161° |
| 2026-05-04 07:28 | 21.93499 | 113.57869 | 20980 ft | 405 kts | 164° |
| 2026-05-04 07:29 | 21.90889 | 113.58966 | 20159 ft | 400 kts | 164° |
| 2026-05-04 07:29 | 21.88341 | 113.60055 | 19337 ft | 388 kts | 163° |
| 2026-05-04 07:29 | 21.85890 | 113.61141 | 18607 ft | 374 kts | 163° |
| 2026-05-04 07:29 | 21.83531 | 113.62213 | 17865 ft | 361 kts | 163° |
| 2026-05-04 07:30 | 21.81263 | 113.63255 | 17091 ft | 349 kts | 163° |
| 2026-05-04 07:30 | 21.79066 | 113.64267 | 16398 ft | 337 kts | 163° |
| 2026-05-04 07:30 | 21.76951 | 113.65242 | 15798 ft | 325 kts | 163° |
| 2026-05-04 07:30 | 21.74895 | 113.66187 | 15296 ft | 320 kts | 163° |
| 2026-05-04 07:31 | 21.72858 | 113.67122 | 14848 ft | 319 kts | 163° |
| 2026-05-04 07:31 | 21.70960 | 113.68388 | 14360 ft | 330 kts | 141° |
| 2026-05-04 07:33 | 21.76986 | 113.82344 | 11911 ft | 328 kts | 39° |
| 2026-05-04 07:33 | 21.78671 | 113.83985 | 11577 ft | 326 kts | 39° |
| 2026-05-04 07:33 | 21.80348 | 113.85623 | 11204 ft | 325 kts | 39° |
| 2026-05-04 07:33 | 21.82008 | 113.87248 | 10725 ft | 320 kts | 40° |
| 2026-05-04 07:34 | 21.83752 | 113.88688 | 10230 ft | 312 kts | 22° |
| 2026-05-04 07:34 | 21.85791 | 113.89236 | 9751 ft | 298 kts | 356° |
| 2026-05-04 07:34 | 21.87806 | 113.88957 | 9259 ft | 289 kts | 338° |
| 2026-05-04 07:34 | 21.89671 | 113.88148 | 8807 ft | 291 kts | 332° |
| 2026-05-04 07:35 | 21.91519 | 113.87215 | 8377 ft | 295 kts | 331° |
| 2026-05-04 07:35 | 21.93342 | 113.86283 | 8005 ft | 284 kts | 330° |
| 2026-05-04 07:35 | 21.95081 | 113.85401 | 7737 ft | 268 kts | 330° |
| 2026-05-04 07:35 | 21.96737 | 113.84564 | 7478 ft | 260 kts | 330° |
| 2026-05-04 07:36 | 21.98369 | 113.83741 | 7238 ft | 258 kts | 331° |
| 2026-05-04 07:36 | 21.99987 | 113.82928 | 7015 ft | 256 kts | 332° |
| 2026-05-04 07:38 | 22.11269 | 113.77295 | 4884 ft | 254 kts | 333° |
| 2026-05-04 07:38 | 22.12851 | 113.76506 | 4691 ft | 252 kts | 333° |
| 2026-05-04 07:38 | 22.14436 | 113.75715 | 4457 ft | 250 kts | 334° |
| 2026-05-04 07:38 | 22.16006 | 113.74935 | 4192 ft | 248 kts | 334° |
| 2026-05-04 07:39 | 22.17544 | 113.74168 | 4046 ft | 240 kts | 334° |
| 2026-05-04 07:39 | 22.19048 | 113.73414 | 3795 ft | 237 kts | 334° |
| 2026-05-04 07:39 | 22.20524 | 113.72677 | 3613 ft | 227 kts | 334° |
| 2026-05-04 07:39 | 22.21913 | 113.71985 | 3370 ft | 214 kts | 337° |
| 2026-05-04 07:40 | 22.23304 | 113.71711 | 3101 ft | 197 kts | 13° |
| 2026-05-04 07:40 | 22.24525 | 113.72326 | 2967 ft | 197 kts | 38° |
| 2026-05-04 07:40 | 22.25596 | 113.73260 | 2740 ft | 196 kts | 42° |
| 2026-05-04 07:40 | 22.26606 | 113.74196 | 2496 ft | 187 kts | 43° |
| 2026-05-04 07:41 | 22.27555 | 113.75111 | 2302 ft | 178 kts | 52° |
| 2026-05-04 07:41 | 22.28130 | 113.76279 | 2157 ft | 179 kts | 67° |
| 2026-05-04 07:41 | 22.28668 | 113.77542 | 1979 ft | 189 kts | 68° |
| 2026-05-04 07:41 | 22.29126 | 113.78825 | 1804 ft | 175 kts | 71° |
| 2026-05-04 07:42 | 22.29511 | 113.80018 | 1597 ft | 161 kts | 73° |
| 2026-05-04 07:42 | 22.29860 | 113.81112 | 1422 ft | 152 kts | 72° |
| 2026-05-04 07:42 | 22.30205 | 113.82183 | 1232 ft | 152 kts | 73° |
| 2026-05-04 07:42 | 22.30559 | 113.83276 | 1037 ft | 155 kts | 73° |
| 2026-05-04 07:43 | 22.30915 | 113.84383 | 811 ft | 159 kts | 72° |
| 2026-05-04 07:43 | 22.31286 | 113.85518 | 603 ft | 161 kts | 71° |
| 2026-05-04 07:43 | 22.31658 | 113.86673 | 375 ft | 164 kts | 71° |
| 2026-05-04 07:43 | 22.32036 | 113.87843 | 168 ft | 166 kts | 70° |
| 2026-05-04 07:44 | 22.32411 | 113.89011 | 44 ft | 157 kts | 69° |
| 2026-05-04 07:44 | 22.32729 | 113.89984 | 41 ft | 115 kts | 71° |
| 2026-05-04 07:44 | 22.32927 | 113.90606 | 40 ft | 62 kts | 76° |
| 2026-05-04 07:44 | 22.32918 | 113.90907 | 40 ft | 25 kts | 101° |
| 2026-05-04 07:45 | 22.32907 | 113.91095 | 40 ft | 25 kts | 76° |
| 2026-05-04 07:45 | 22.32965 | 113.91275 | 40 ft | 25 kts | 70° |
| 2026-05-04 07:45 | 22.33022 | 113.91456 | 40 ft | 25 kts | 71° |
| 2026-05-04 07:45 | 22.33081 | 113.91636 | 40 ft | 25 kts | 70° |
| 2026-05-04 07:46 | 22.33139 | 113.91815 | 40 ft | 25 kts | 70° |
| 2026-05-04 07:46 | 22.33197 | 113.91995 | 40 ft | 25 kts | 71° |
| 2026-05-04 07:46 | 22.33176 | 113.92113 | 40 ft | 15 kts | 149° |
| 2026-05-04 07:46 | 22.33080 | 113.92152 | 40 ft | 15 kts | 161° |
| 2026-05-04 07:47 | 22.32983 | 113.92189 | 40 ft | 15 kts | 161° |
| 2026-05-04 07:47 | 22.32885 | 113.92226 | 40 ft | 15 kts | 161° |
| 2026-05-04 07:47 | 22.32779 | 113.92266 | 40 ft | 19 kts | 161° |
| 2026-05-04 07:49 | 22.32162 | 113.92693 | 40 ft | 12 kts | 161° |
| 2026-05-04 07:49 | 22.32079 | 113.92723 | 40 ft | 13 kts | 161° |
| 2026-05-04 07:49 | 22.31994 | 113.92755 | 40 ft | 13 kts | 161° |
| 2026-05-04 07:50 | 22.31909 | 113.92784 | 40 ft | 11 kts | 176° |
| 2026-05-04 07:50 | 22.31857 | 113.92725 | 40 ft | 12 kts | 248° |
| 2026-05-04 07:50 | 22.31830 | 113.92643 | 40 ft | 12 kts | 251° |
| 2026-05-04 07:50 | 22.31804 | 113.92560 | 40 ft | 12 kts | 251° |
| 2026-05-04 07:51 | 22.31778 | 113.92478 | 40 ft | 12 kts | 251° |
| 2026-05-04 07:51 | 22.31751 | 113.92396 | 40 ft | 12 kts | 250° |
| 2026-05-04 07:51 | 22.31724 | 113.92314 | 40 ft | 12 kts | 251° |
| 2026-05-04 07:51 | 22.31693 | 113.92218 | 40 ft | 17 kts | 250° |
| 2026-05-04 07:52 | 22.31649 | 113.92084 | 40 ft | 19 kts | 251° |
| 2026-05-04 07:52 | 22.31582 | 113.92024 | 40 ft | 12 kts | 166° |
| 2026-05-04 07:52 | 22.31509 | 113.92058 | 40 ft | 8 kts | 160° |
| 2026-05-04 07:52 | 22.31508 | 113.92058 | 40 ft | 0 kts | 160° |
| 2026-05-04 07:54 | 22.31378 | 113.92211 | 40 ft | 0 kts | 115° |
| 2026-05-04 07:55 | 22.31377 | 113.92212 | 40 ft | 1 kts | 115° |
| 2026-05-04 07:55 | 22.31363 | 113.92246 | 40 ft | 9 kts | 115° |
| 2026-05-04 07:55 | 22.31330 | 113.92319 | 40 ft | 11 kts | 116° |
| 2026-05-04 07:56 | 22.31295 | 113.92395 | 40 ft | 11 kts | 115° |
| 2026-05-04 07:56 | 22.31261 | 113.92471 | 40 ft | 11 kts | 116° |
| 2026-05-04 07:56 | 22.31205 | 113.92513 | 40 ft | 10 kts | 186° |
| 2026-05-04 07:56 | 22.31160 | 113.92545 | 40 ft | 6 kts | 117° |
| 2026-05-04 07:57 | 22.31146 | 113.92576 | 40 ft | 4 kts | 115° |
| 2026-05-04 07:57 | 22.31141 | 113.92588 | 40 ft | 0 kts | 115° |